Time;durP1;ratioP1;P1;durP2;ratioP2;P2;SDS_P1;SDS_P2;PMS_P1;PMS_P2;Temp;Humidity;BMP_temperature;BMP_pressure;BME280_temperature;BME280_humidity;BME280_pressure;Samples;Min_cycle;Max_cycle;Signal;HPM_P1;HPM_P2
2023/05/16 00:01:53;;;;;;;22.40;11.60;;;;;;;;;;4995022;28;20026;-80
2023/05/16 00:04:20;;;;;;;25.57;12.63;;;;;;;;;;5011715;28;20030;-79
2023/05/16 00:06:46;;;;;;;32.07;13.27;;;;;;;;;;4997461;28;20066;-79
2023/05/16 00:09:12;;;;;;;27.53;13.07;;;;;;;;;;4992281;28;20065;-78
2023/05/16 00:11:38;;;;;;;22.33;14.07;;;;;;;;;;4995125;28;20084;-80
2023/05/16 00:14:04;;;;;;;30.03;14.03;;;;;;;;;;4990591;28;20117;-78
2023/05/16 00:16:30;;;;;;;29.90;14.60;;;;;;;;;;4983781;28;20098;-79
2023/05/16 00:18:59;;;;;;;35.83;15.53;;;;;;;;;;4980261;28;20042;-79
2023/05/16 00:21:25;;;;;;;28.90;15.70;;;;;;;;;;4985110;28;20031;-78
2023/05/16 00:23:51;;;;;;;27.73;15.23;;;;;;;;;;4977219;28;20034;-79
2023/05/16 00:26:18;;;;;;;32.10;15.47;;;;;;;;;;4980553;28;20041;-79
2023/05/16 00:28:44;;;;;;;41.37;16.17;;;;;;;;;;4978430;28;20388;-79
2023/05/16 00:31:10;;;;;;;32.27;16.30;;;;;;;;;;4989305;28;20031;-80
2023/05/16 00:33:36;;;;;;;31.80;16.70;;;;;;;;;;4984796;28;20094;-80
2023/05/16 00:36:02;;;;;;;28.83;14.87;;;;;;;;;;4981661;28;20049;-80
2023/05/16 00:38:28;;;;;;;35.67;16.57;;;;;;;;;;5002835;28;20094;-80
2023/05/16 00:40:54;;;;;;;32.40;15.83;;;;;;;;;;5002467;28;20030;-80
2023/05/16 00:43:20;;;;;;;36.43;17.80;;;;;;;;;;4992644;28;20110;-78
2023/05/16 00:45:46;;;;;;;35.50;18.97;;;;;;;;;;4986710;28;20045;-80
2023/05/16 00:48:13;;;;;;;43.37;19.77;;;;;;;;;;4997709;28;20027;-79
2023/05/16 00:50:41;;;;;;;43.43;18.87;;;;;;;;;;4994724;28;20038;-79
2023/05/16 00:53:07;;;;;;;42.57;20.87;;;;;;;;;;4992424;28;20043;-80
2023/05/16 00:55:33;;;;;;;46.73;20.70;;;;;;;;;;4977012;28;20442;-80
2023/05/16 00:57:59;;;;;;;57.57;21.40;;;;;;;;;;4981720;28;20054;-80
2023/05/16 01:00:25;;;;;;;52.07;21.53;;;;;;;;;;4978389;28;20750;-79
2023/05/16 01:02:57;;;;;;;45.07;21.17;;;;;;;;;;4986961;28;20290;-76
2023/05/16 01:05:24;;;;;;;43.50;19.95;;;;;;;;;;4981171;28;20029;-78
2023/05/16 01:07:50;;;;;;;42.30;20.17;;;;;;;;;;4979755;28;20042;-79
2023/05/16 01:10:16;;;;;;;44.67;18.70;;;;;;;;;;4982016;28;20031;-78
2023/05/16 01:12:48;;;;;;;42.50;18.17;;;;;;;;;;4986666;28;20022;-79
2023/05/16 01:15:21;;;;;;;41.67;17.55;;;;;;;;;;4985200;28;20042;-79
2023/05/16 01:18:08;;;;;;;50.50;18.97;;;;;;;;;;4988290;28;20058;-77
2023/05/16 01:20:34;;;;;;;44.63;16.93;;;;;;;;;;4990506;28;20094;-78
2023/05/16 01:23:05;;;;;;;38.37;16.73;;;;;;;;;;4984998;28;20030;-79
2023/05/16 01:25:37;;;;;;;32.70;16.40;;;;;;;;;;4984332;28;20042;-79
2023/05/16 01:28:04;;;;;;;44.67;20.42;;;;;;;;;;4987311;28;20478;-79
2023/05/16 01:30:35;;;;;;;44.70;23.13;;;;;;;;;;4991548;28;20127;-78
2023/05/16 01:33:01;;;;;;;60.27;24.70;;;;;;;;;;4985225;28;20469;-76
2023/05/16 01:35:27;;;;;;;64.17;27.20;;;;;;;;;;4975125;28;20039;-78
2023/05/16 01:37:59;;;;;;;70.87;28.83;;;;;;;;;;4975821;28;20035;-78
2023/05/16 01:40:35;;;;;;;62.13;26.95;;;;;;;;;;4991792;28;20900;-78
2023/05/16 01:43:04;;;;;;;56.27;23.57;;;;;;;;;;4976754;28;20038;-78
2023/05/16 01:45:32;;;;;;;51.97;22.87;;;;;;;;;;4994377;28;20050;-78
2023/05/16 01:48:02;;;;;;;58.30;23.97;;;;;;;;;;4979766;28;20114;-79
2023/05/16 01:50:32;;;;;;;88.37;24.50;;;;;;;;;;4988593;28;20035;-78
2023/05/16 01:53:05;;;;;;;55.97;23.47;;;;;;;;;;4999335;28;20045;-79
2023/05/16 01:55:39;;;;;;;47.90;21.97;;;;;;;;;;4985938;28;20085;-79
2023/05/16 01:58:07;;;;;;;44.00;20.70;;;;;;;;;;4986797;28;20035;-78
2023/05/16 02:00:33;;;;;;;49.77;21.63;;;;;;;;;;4991415;28;21831;-79
2023/05/16 02:02:59;;;;;;;47.53;19.70;;;;;;;;;;4991550;28;20085;-77
2023/05/16 02:05:25;;;;;;;43.97;19.93;;;;;;;;;;4992422;28;20092;-78
2023/05/16 02:07:52;;;;;;;47.73;17.97;;;;;;;;;;4981601;28;20073;-79
2023/05/16 02:10:19;;;;;;;42.67;16.73;;;;;;;;;;4992109;28;20470;-79
2023/05/16 02:12:45;;;;;;;36.67;15.10;;;;;;;;;;4977069;28;20459;-79
2023/05/16 02:15:11;;;;;;;39.70;15.90;;;;;;;;;;4976904;28;20030;-79
2023/05/16 02:17:37;;;;;;;41.00;16.90;;;;;;;;;;4978267;28;20038;-79
2023/05/16 02:20:05;;;;;;;49.53;20.33;;;;;;;;;;4990654;28;20028;-78
2023/05/16 02:22:35;;;;;;;58.00;24.70;;;;;;;;;;4985592;28;21609;-78
2023/05/16 02:25:02;;;;;;;56.87;25.70;;;;;;;;;;4984355;28;20050;-79
2023/05/16 02:27:28;;;;;;;60.90;25.53;;;;;;;;;;4984008;28;20045;-78
2023/05/16 02:29:54;;;;;;;69.67;27.70;;;;;;;;;;4974433;28;20026;-77
2023/05/16 02:32:20;;;;;;;80.30;29.40;;;;;;;;;;4977080;28;21824;-79
2023/05/16 02:34:46;;;;;;;80.70;30.60;;;;;;;;;;4982127;28;20111;-79
2023/05/16 02:37:12;;;;;;;75.57;31.23;;;;;;;;;;4976669;28;20125;-78
2023/05/16 02:39:38;;;;;;;78.83;33.97;;;;;;;;;;4987484;28;20045;-79
2023/05/16 02:42:05;;;;;;;75.37;31.50;;;;;;;;;;4981484;28;20031;-79
2023/05/16 02:44:31;;;;;;;77.43;33.57;;;;;;;;;;4976946;28;20355;-79
2023/05/16 02:46:57;;;;;;;80.53;34.57;;;;;;;;;;4976645;28;20031;-79
2023/05/16 02:49:23;;;;;;;83.83;32.13;;;;;;;;;;4976358;28;20031;-80
2023/05/16 02:51:49;;;;;;;83.10;33.00;;;;;;;;;;4986591;28;20025;-79
2023/05/16 02:54:15;;;;;;;85.77;35.23;;;;;;;;;;4983412;28;20046;-79
2023/05/16 02:56:41;;;;;;;96.13;35.83;;;;;;;;;;4988153;28;20014;-78
2023/05/16 02:59:07;;;;;;;107.57;37.40;;;;;;;;;;4987312;28;20034;-78
2023/05/16 03:01:34;;;;;;;109.50;36.47;;;;;;;;;;4986665;28;20049;-80
2023/05/16 03:04:00;;;;;;;105.43;37.83;;;;;;;;;;4995553;28;20026;-79
2023/05/16 03:06:26;;;;;;;115.20;36.47;;;;;;;;;;4987099;28;20034;-76
2023/05/16 03:08:52;;;;;;;98.73;34.80;;;;;;;;;;4995358;28;20051;-76
2023/05/16 03:11:22;;;;;;;103.43;35.93;;;;;;;;;;5002744;28;20054;-78
2023/05/16 03:13:49;;;;;;;90.90;31.63;;;;;;;;;;5004345;28;20027;-77
2023/05/16 03:16:15;;;;;;;89.27;33.20;;;;;;;;;;5004859;28;20042;-76
2023/05/16 03:18:43;;;;;;;79.37;29.10;;;;;;;;;;4999199;28;20014;-76
2023/05/16 03:21:10;;;;;;;79.00;28.00;;;;;;;;;;5009565;28;21105;-76
2023/05/16 03:23:36;;;;;;;81.13;26.37;;;;;;;;;;4998090;28;20035;-75
2023/05/16 03:26:02;;;;;;;62.13;21.77;;;;;;;;;;5005764;28;20046;-77
2023/05/16 03:28:28;;;;;;;64.93;21.03;;;;;;;;;;4997889;28;20101;-75
2023/05/16 03:30:54;;;;;;;60.97;21.13;;;;;;;;;;5008364;28;20105;-75
2023/05/16 03:33:20;;;;;;;54.80;17.50;;;;;;;;;;4998848;28;20425;-75
2023/05/16 03:35:46;;;;;;;44.27;15.53;;;;;;;;;;4999137;28;20027;-76
2023/05/16 03:38:12;;;;;;;47.77;16.90;;;;;;;;;;5008171;28;20014;-75
2023/05/16 03:40:39;;;;;;;52.80;18.40;;;;;;;;;;5000953;28;20054;-75
2023/05/16 03:43:05;;;;;;;58.00;17.93;;;;;;;;;;5014667;28;20024;-75
2023/05/16 03:45:31;;;;;;;64.07;18.90;;;;;;;;;;5007385;28;20023;-75
2023/05/16 03:48:00;;;;;;;61.20;17.50;;;;;;;;;;4999241;28;20085;-76
2023/05/16 03:50:26;;;;;;;62.83;18.37;;;;;;;;;;5004020;28;20033;-76
2023/05/16 03:52:53;;;;;;;58.67;17.53;;;;;;;;;;5005694;28;20030;-76
2023/05/16 03:55:19;;;;;;;55.37;18.53;;;;;;;;;;4996825;28;20019;-76
2023/05/16 03:57:46;;;;;;;58.77;17.83;;;;;;;;;;4997529;28;20046;-76
2023/05/16 04:00:13;;;;;;;55.57;17.13;;;;;;;;;;5005531;28;20031;-76
2023/05/16 04:02:42;;;;;;;57.13;16.77;;;;;;;;;;4997511;28;20034;-77
2023/05/16 04:05:12;;;;;;;58.33;17.77;;;;;;;;;;5014971;28;20199;-75
2023/05/16 04:07:38;;;;;;;49.97;18.80;;;;;;;;;;5005199;28;20062;-76
2023/05/16 04:10:05;;;;;;;49.00;17.77;;;;;;;;;;4998806;28;20095;-77
2023/05/16 04:12:31;;;;;;;64.37;20.27;;;;;;;;;;4998456;28;20108;-77
2023/05/16 04:14:57;;;;;;;60.97;20.73;;;;;;;;;;4997446;28;20046;-77
2023/05/16 04:17:28;;;;;;;67.97;21.43;;;;;;;;;;5000124;28;20026;-77
2023/05/16 04:19:56;;;;;;;56.10;18.90;;;;;;;;;;5005145;28;20023;-76
2023/05/16 04:22:22;;;;;;;68.70;20.40;;;;;;;;;;4997133;28;20054;-76
2023/05/16 04:24:49;;;;;;;57.97;19.70;;;;;;;;;;5005665;28;20034;-77
2023/05/16 04:27:20;;;;;;;57.03;18.13;;;;;;;;;;4997307;28;20023;-78
2023/05/16 04:29:46;;;;;;;65.10;19.37;;;;;;;;;;4998146;28;20026;-78
2023/05/16 04:32:12;;;;;;;68.73;21.13;;;;;;;;;;5012389;28;20030;-79
2023/05/16 04:34:39;;;;;;;43.37;16.27;;;;;;;;;;5003838;28;20022;-79
2023/05/16 04:37:06;;;;;;;48.63;16.17;;;;;;;;;;5004412;28;20025;-77
2023/05/16 04:39:32;;;;;;;50.53;14.13;;;;;;;;;;4998402;28;20057;-76
2023/05/16 04:42:16;;;;;;;36.00;9.57;;;;;;;;;;5013663;28;20031;-76
2023/05/16 04:44:46;;;;;;;35.73;10.07;;;;;;;;;;5003205;28;20015;-77
2023/05/16 04:47:20;;;;;;;49.50;11.07;;;;;;;;;;5006155;28;20131;-77
2023/05/16 04:49:56;;;;;;;44.97;10.87;;;;;;;;;;5003239;28;20019;-77
2023/05/16 04:52:22;;;;;;;37.57;10.70;;;;;;;;;;4996884;28;20090;-78
2023/05/16 04:54:51;;;;;;;43.70;11.60;;;;;;;;;;4996700;28;20053;-78
2023/05/16 04:57:17;;;;;;;40.77;11.13;;;;;;;;;;5013572;23;20038;-80
2023/05/16 04:59:43;;;;;;;41.30;12.37;;;;;;;;;;5027194;28;20018;-80
2023/05/16 05:02:10;;;;;;;46.77;13.73;;;;;;;;;;5012252;28;20045;-77
2023/05/16 05:04:36;;;;;;;49.93;13.00;;;;;;;;;;5011468;28;20025;-79
2023/05/16 05:07:05;;;;;;;34.17;13.73;;;;;;;;;;5008714;28;20038;-80
2023/05/16 05:09:31;;;;;;;34.63;13.07;;;;;;;;;;5017745;28;20042;-79
2023/05/16 05:11:59;;;;;;;39.20;10.90;;;;;;;;;;5015241;28;20058;-79
2023/05/16 05:14:34;;;;;;;44.17;13.17;;;;;;;;;;5017939;28;20030;-79
2023/05/16 05:17:08;;;;;;;36.40;13.93;;;;;;;;;;5029927;28;20115;-80
2023/05/16 05:19:36;;;;;;;46.23;14.07;;;;;;;;;;5017934;28;20042;-81
2023/05/16 05:22:05;;;;;;;40.77;13.07;;;;;;;;;;5018958;28;20041;-80
2023/05/16 05:24:31;;;;;;;34.47;11.77;;;;;;;;;;5017674;28;20030;-80
2023/05/16 05:26:57;;;;;;;41.80;12.33;;;;;;;;;;5011987;28;20054;-79
2023/05/16 05:29:23;;;;;;;41.77;11.90;;;;;;;;;;5013884;28;20014;-80
2023/05/16 05:31:49;;;;;;;32.83;10.57;;;;;;;;;;5018247;28;20038;-80
2023/05/16 05:34:15;;;;;;;30.23;9.63;;;;;;;;;;5017622;28;20034;-79
2023/05/16 05:36:43;;;;;;;28.47;8.93;;;;;;;;;;5025061;28;20029;-80
2023/05/16 05:39:14;;;;;;;28.70;10.00;;;;;;;;;;5017155;28;20014;-80
2023/05/16 05:41:40;;;;;;;25.97;7.23;;;;;;;;;;5017722;28;20038;-80
2023/05/16 05:44:06;;;;;;;25.90;6.87;;;;;;;;;;5015852;28;20018;-79
2023/05/16 05:46:35;;;;;;;36.67;7.93;;;;;;;;;;5015109;28;20041;-80
2023/05/16 05:49:01;;;;;;;25.67;6.90;;;;;;;;;;5008919;28;20026;-80
2023/05/16 05:51:27;;;;;;;45.07;9.17;;;;;;;;;;5015695;28;20041;-79
2023/05/16 05:53:54;;;;;;;32.90;6.83;;;;;;;;;;5022992;28;20062;-78
2023/05/16 05:56:25;;;;;;;34.27;7.23;;;;;;;;;;5005893;28;20026;-78
2023/05/16 05:58:51;;;;;;;27.67;7.10;;;;;;;;;;5024410;28;20045;-79
2023/05/16 06:01:17;;;;;;;34.47;7.67;;;;;;;;;;5015722;28;20030;-80
2023/05/16 06:03:45;;;;;;;33.13;6.53;;;;;;;;;;5016662;28;20126;-80
2023/05/16 06:06:11;;;;;;;28.17;5.97;;;;;;;;;;5016611;28;20086;-80
2023/05/16 06:08:37;;;;;;;22.20;5.47;;;;;;;;;;5016439;28;20019;-79
2023/05/16 06:11:03;;;;;;;24.90;6.53;;;;;;;;;;5006002;28;20019;-78
2023/05/16 06:13:32;;;;;;;28.80;6.07;;;;;;;;;;5016810;28;20048;-79
2023/05/16 06:16:01;;;;;;;25.30;5.03;;;;;;;;;;5023666;28;20025;-80
2023/05/16 06:18:28;;;;;;;20.90;5.37;;;;;;;;;;5011559;28;20046;-80
2023/05/16 06:20:54;;;;;;;24.80;4.90;;;;;;;;;;5017214;28;20022;-78
2023/05/16 06:23:23;;;;;;;13.83;3.20;;;;;;;;;;5016927;28;20041;-80
2023/05/16 06:25:49;;;;;;;29.33;5.07;;;;;;;;;;5016506;28;20085;-80
2023/05/16 06:28:15;;;;;;;20.07;3.20;;;;;;;;;;5035681;23;20037;-81
2023/05/16 06:30:42;;;;;;;26.27;4.37;;;;;;;;;;5010611;28;20006;-80
2023/05/16 06:33:11;;;;;;;24.53;3.50;;;;;;;;;;5008524;28;20025;-80
2023/05/16 06:35:37;;;;;;;18.67;2.87;;;;;;;;;;5007589;28;20026;-80
2023/05/16 06:38:05;;;;;;;18.70;2.97;;;;;;;;;;5009899;28;20238;-79
2023/05/16 06:40:31;;;;;;;15.93;2.53;;;;;;;;;;5012709;28;20074;-80
2023/05/16 06:42:57;;;;;;;15.00;3.20;;;;;;;;;;5015342;28;20197;-79
2023/05/16 06:45:26;;;;;;;23.53;3.10;;;;;;;;;;5013670;28;20026;-80
2023/05/16 06:47:52;;;;;;;24.20;3.50;;;;;;;;;;5013609;28;20017;-81
2023/05/16 06:50:18;;;;;;;11.27;2.27;;;;;;;;;;5012123;28;20042;-81
2023/05/16 06:52:47;;;;;;;15.53;2.60;;;;;;;;;;5009414;28;20030;-79
2023/05/16 06:55:13;;;;;;;18.27;2.40;;;;;;;;;;5016439;28;20033;-79
2023/05/16 06:57:39;;;;;;;15.13;2.67;;;;;;;;;;5016552;28;20018;-80
2023/05/16 07:00:06;;;;;;;16.83;2.60;;;;;;;;;;5014179;28;20002;-80
2023/05/16 07:02:32;;;;;;;14.53;2.70;;;;;;;;;;5013718;28;20036;-80
2023/05/16 07:04:58;;;;;;;16.93;4.97;;;;;;;;;;5029203;28;20014;-80
2023/05/16 07:07:24;;;;;;;23.53;5.43;;;;;;;;;;5015693;28;20110;-81
2023/05/16 07:09:50;;;;;;;25.00;5.03;;;;;;;;;;5008937;28;20023;-81
2023/05/16 07:12:16;;;;;;;27.70;4.67;;;;;;;;;;5008907;28;20033;-80
2023/05/16 07:14:42;;;;;;;18.93;4.17;;;;;;;;;;5010562;28;20026;-80
2023/05/16 07:17:11;;;;;;;25.67;5.27;;;;;;;;;;5012173;28;20085;-79
2023/05/16 07:19:37;;;;;;;20.93;4.90;;;;;;;;;;5011648;28;20007;-80
2023/05/16 07:22:03;;;;;;;23.83;5.37;;;;;;;;;;5013139;28;20061;-80
2023/05/16 07:24:30;;;;;;;20.63;4.63;;;;;;;;;;5009750;28;20026;-81
2023/05/16 07:26:56;;;;;;;30.97;4.50;;;;;;;;;;5008056;28;20038;-81
2023/05/16 07:29:25;;;;;;;21.50;4.90;;;;;;;;;;5009577;28;20018;-81
2023/05/16 07:31:51;;;;;;;12.73;4.10;;;;;;;;;;5013234;28;20042;-79
2023/05/16 07:34:17;;;;;;;19.13;4.53;;;;;;;;;;5010588;28;20185;-79
2023/05/16 07:36:45;;;;;;;24.33;5.37;;;;;;;;;;5009354;28;20042;-80
2023/05/16 07:39:11;;;;;;;24.47;5.07;;;;;;;;;;5011592;28;20026;-80
2023/05/16 07:41:37;;;;;;;18.60;5.03;;;;;;;;;;5011042;28;20034;-79
2023/05/16 07:44:03;;;;;;;15.73;5.10;;;;;;;;;;5009292;28;20146;-80
2023/05/16 07:46:29;;;;;;;19.00;5.07;;;;;;;;;;5026703;28;20036;-80
2023/05/16 07:48:55;;;;;;;19.80;4.70;;;;;;;;;;5012623;28;20018;-80
2023/05/16 07:51:26;;;;;;;24.37;5.20;;;;;;;;;;5011289;28;20065;-80
2023/05/16 07:53:52;;;;;;;19.53;4.63;;;;;;;;;;5007179;28;20023;-80
2023/05/16 07:56:23;;;;;;;16.87;4.70;;;;;;;;;;5008439;28;20041;-80
2023/05/16 07:58:49;;;;;;;11.50;4.40;;;;;;;;;;5010163;28;20030;-81
2023/05/16 08:01:20;;;;;;;16.00;4.37;;;;;;;;;;5012413;28;20156;-78
2023/05/16 08:03:46;;;;;;;19.97;4.70;;;;;;;;;;5014374;28;20034;-78
2023/05/16 08:06:12;;;;;;;20.60;4.93;;;;;;;;;;5013796;28;20033;-79
2023/05/16 08:08:38;;;;;;;16.57;3.80;;;;;;;;;;5012012;28;20027;-80
2023/05/16 08:11:04;;;;;;;13.93;3.67;;;;;;;;;;5007684;28;20106;-80
2023/05/16 08:13:30;;;;;;;17.67;3.60;;;;;;;;;;5008928;28;20095;-80
2023/05/16 08:15:56;;;;;;;21.57;3.73;;;;;;;;;;4992497;28;20035;-79
2023/05/16 08:18:22;;;;;;;33.83;5.00;;;;;;;;;;4993933;28;20034;-80
2023/05/16 08:20:49;;;;;;;21.83;3.60;;;;;;;;;;4991049;28;20037;-79
2023/05/16 08:23:15;;;;;;;11.67;3.17;;;;;;;;;;4991317;28;20045;-79
2023/05/16 08:25:41;;;;;;;19.23;3.67;;;;;;;;;;4996655;28;20340;-80
2023/05/16 08:28:07;;;;;;;14.43;3.90;;;;;;;;;;5008138;28;20085;-79
2023/05/16 08:30:33;;;;;;;13.50;2.97;;;;;;;;;;4992587;28;20038;-80
2023/05/16 08:33:03;;;;;;;13.97;3.10;;;;;;;;;;4986845;28;20035;-79
2023/05/16 08:35:29;;;;;;;17.20;3.40;;;;;;;;;;4988699;28;20030;-80
2023/05/16 08:37:55;;;;;;;13.03;2.40;;;;;;;;;;4989482;28;20022;-79
2023/05/16 08:40:24;;;;;;;14.00;2.70;;;;;;;;;;4997226;28;20032;-80
2023/05/16 08:42:51;;;;;;;15.47;2.57;;;;;;;;;;4986465;28;20030;-80
2023/05/16 08:45:17;;;;;;;14.23;2.30;;;;;;;;;;4987992;28;20109;-80
2023/05/16 08:47:43;;;;;;;6.73;1.80;;;;;;;;;;4995901;28;20054;-80
2023/05/16 08:50:10;;;;;;;16.97;2.57;;;;;;;;;;5009893;28;20039;-81
2023/05/16 08:52:37;;;;;;;17.73;2.33;;;;;;;;;;4996859;28;20026;-80
2023/05/16 08:55:08;;;;;;;8.60;2.27;;;;;;;;;;5013284;28;20053;-80
2023/05/16 08:57:35;;;;;;;9.43;1.83;;;;;;;;;;5007483;28;20038;-80
2023/05/16 09:00:10;;;;;;;8.37;1.90;;;;;;;;;;5010034;28;20031;-80
2023/05/16 09:02:37;;;;;;;12.83;2.60;;;;;;;;;;5009066;28;20077;-80
2023/05/16 09:05:08;;;;;;;8.40;2.43;;;;;;;;;;5008566;28;20033;-79
2023/05/16 09:07:34;;;;;;;11.87;2.10;;;;;;;;;;5008315;28;20077;-79
2023/05/16 09:10:04;;;;;;;11.83;2.67;;;;;;;;;;5007397;28;20042;-80
2023/05/16 09:12:30;;;;;;;11.43;2.17;;;;;;;;;;5012367;28;20015;-79
2023/05/16 09:14:57;;;;;;;11.93;2.37;;;;;;;;;;5012073;28;20006;-80
2023/05/16 09:17:23;;;;;;;10.43;2.07;;;;;;;;;;5010493;28;20021;-78
2023/05/16 09:19:51;;;;;;;10.90;1.30;;;;;;;;;;5010437;28;20073;-79
2023/05/16 09:22:17;;;;;;;13.77;1.90;;;;;;;;;;5023838;28;20183;-80
2023/05/16 09:24:44;;;;;;;10.63;2.03;;;;;;;;;;5007871;28;20045;-80
2023/05/16 09:27:16;;;;;;;8.57;2.40;;;;;;;;;;5008209;28;20057;-80
2023/05/16 09:29:50;;;;;;;10.77;2.97;;;;;;;;;;5013411;28;20063;-79
2023/05/16 09:32:19;;;;;;;9.03;1.70;;;;;;;;;;5009854;28;20011;-80
2023/05/16 09:34:48;;;;;;;7.27;1.80;;;;;;;;;;5006566;28;20014;-79
2023/05/16 09:37:14;;;;;;;7.90;1.47;;;;;;;;;;5011711;28;20030;-80
2023/05/16 09:39:50;;;;;;;7.43;1.30;;;;;;;;;;5009096;28;20034;-79
2023/05/16 09:42:17;;;;;;;14.40;1.83;;;;;;;;;;5010691;28;20014;-80
2023/05/16 09:44:51;;;;;;;8.80;1.53;;;;;;;;;;5010048;28;20050;-79
2023/05/16 09:47:17;;;;;;;7.27;1.40;;;;;;;;;;5011592;28;20034;-79
2023/05/16 09:49:44;;;;;;;7.13;1.80;;;;;;;;;;5024949;28;20123;-79
2023/05/16 09:52:10;;;;;;;11.67;1.80;;;;;;;;;;5007374;28;20011;-79
2023/05/16 09:54:36;;;;;;;9.57;1.60;;;;;;;;;;5009200;28;20102;-79
2023/05/16 09:57:02;;;;;;;8.80;1.47;;;;;;;;;;5012801;28;20053;-80
2023/05/16 09:59:29;;;;;;;7.83;1.43;;;;;;;;;;5009917;28;20022;-80
2023/05/16 10:01:57;;;;;;;12.97;1.67;;;;;;;;;;5008237;28;20023;-80
2023/05/16 10:04:23;;;;;;;7.63;1.77;;;;;;;;;;5013938;28;20033;-79
2023/05/16 10:06:53;;;;;;;8.77;1.50;;;;;;;;;;5011006;28;20041;-79
2023/05/16 10:09:20;;;;;;;8.97;2.03;;;;;;;;;;5025755;28;20018;-80
2023/05/16 10:11:48;;;;;;;9.27;1.40;;;;;;;;;;5009446;28;20085;-79
2023/05/16 10:14:16;;;;;;;5.97;1.10;;;;;;;;;;5011238;28;20029;-79
2023/05/16 10:16:43;;;;;;;12.47;1.50;;;;;;;;;;5012146;28;20101;-80
2023/05/16 10:19:11;;;;;;;5.97;1.47;;;;;;;;;;5011115;28;20136;-79
2023/05/16 10:21:40;;;;;;;5.63;1.10;;;;;;;;;;5029846;28;21215;-79
2023/05/16 10:24:07;;;;;;;4.13;0.90;;;;;;;;;;5012460;28;20042;-79
2023/05/16 10:26:33;;;;;;;4.60;1.23;;;;;;;;;;5027150;28;20098;-79
2023/05/16 10:29:08;;;;;;;7.33;1.60;;;;;;;;;;5011634;28;20038;-79
2023/05/16 10:31:34;;;;;;;4.50;1.13;;;;;;;;;;5013470;28;20030;-80
2023/05/16 10:34:06;;;;;;;13.30;2.23;;;;;;;;;;5027071;28;20025;-80
2023/05/16 10:36:42;;;;;;;;;;;;;;;;;;;;;
2023/05/16 10:39:09;;;;;;;7.43;1.03;;;;;;;;;;5013544;28;20053;-80
2023/05/16 10:41:35;;;;;;;8.17;1.70;;;;;;;;;;5013652;28;20047;-80
2023/05/16 10:44:03;;;;;;;4.30;0.90;;;;;;;;;;5014100;28;20061;-79
2023/05/16 10:46:31;;;;;;;3.90;1.67;;;;;;;;;;5012038;28;20051;-80
2023/05/16 10:48:57;;;;;;;7.63;1.40;;;;;;;;;;5013428;28;20026;-80
2023/05/16 10:51:23;;;;;;;7.90;1.40;;;;;;;;;;5027652;28;20041;-79
2023/05/16 10:53:53;;;;;;;4.43;1.50;;;;;;;;;;5011064;28;20258;-79
2023/05/16 10:56:30;;;;;;;10.43;1.40;;;;;;;;;;5029130;28;20039;-79
2023/05/16 10:58:58;;;;;;;8.93;2.10;;;;;;;;;;5012410;28;20086;-78
2023/05/16 11:01:34;;;;;;;10.17;2.03;;;;;;;;;;5012870;28;20035;-78
2023/05/16 11:04:07;;;;;;;10.73;1.70;;;;;;;;;;5028019;28;20026;-78
2023/05/16 11:06:34;;;;;;;5.10;1.30;;;;;;;;;;5012915;28;20044;-79
2023/05/16 11:09:09;;;;;;;7.37;1.67;;;;;;;;;;5010233;28;20010;-79
2023/05/16 11:11:40;;;;;;;6.23;1.63;;;;;;;;;;5011457;28;20019;-78
2023/05/16 11:14:08;;;;;;;6.23;1.70;;;;;;;;;;5013044;28;20034;-79
2023/05/16 11:16:37;;;;;;;6.17;2.00;;;;;;;;;;5011594;28;20082;-79
2023/05/16 11:19:05;;;;;;;6.47;1.33;;;;;;;;;;5009884;28;20045;-80
2023/05/16 11:21:50;;;;;;;6.23;1.77;;;;;;;;;;5015134;28;20018;-80
2023/05/16 11:24:34;;;;;;;9.33;1.37;;;;;;;;;;5015964;28;20045;-79
2023/05/16 11:27:03;;;;;;;15.53;1.87;;;;;;;;;;5010551;28;20037;-78
2023/05/16 11:29:36;;;;;;;6.03;1.77;;;;;;;;;;5014209;28;20014;-79
2023/05/16 11:32:05;;;;;;;6.77;1.60;;;;;;;;;;5026564;28;20073;-77
2023/05/16 11:34:36;;;;;;;7.20;1.33;;;;;;;;;;5009903;28;20082;-80
2023/05/16 11:37:03;;;;;;;7.83;1.77;;;;;;;;;;5011556;28;20077;-79
2023/05/16 11:39:29;;;;;;;10.13;2.17;;;;;;;;;;5025988;28;20019;-78
2023/05/16 11:41:56;;;;;;;7.40;1.27;;;;;;;;;;5013919;28;20026;-79
2023/05/16 11:44:22;;;;;;;8.43;1.43;;;;;;;;;;5010884;28;20022;-79
2023/05/16 11:46:50;;;;;;;7.50;1.73;;;;;;;;;;5012906;28;20037;-79
2023/05/16 11:49:19;;;;;;;8.13;1.57;;;;;;;;;;5015412;28;20037;-79
2023/05/16 11:51:45;;;;;;;10.67;1.50;;;;;;;;;;5027884;28;20007;-79
2023/05/16 11:54:11;;;;;;;10.27;2.17;;;;;;;;;;5010212;28;20097;-78
2023/05/16 11:56:39;;;;;;;9.87;1.30;;;;;;;;;;5011850;28;20125;-80
2023/05/16 11:59:08;;;;;;;7.10;1.20;;;;;;;;;;5008589;28;20056;-80
2023/05/16 12:01:37;;;;;;;9.23;1.48;;;;;;;;;;5008856;28;20607;-79
2023/05/16 12:04:13;;;;;;;10.95;1.90;;;;;;;;;;5014706;28;20046;-79
2023/05/16 12:06:39;;;;;;;13.90;1.50;;;;;;;;;;5010166;28;20030;-79
2023/05/16 12:09:12;;;;;;;19.23;2.13;;;;;;;;;;5010295;28;20054;-79
2023/05/16 12:11:38;;;;;;;;;;;;;;;;;;5010917;28;20038;-80
2023/05/16 12:14:05;;;;;;;10.47;1.63;;;;;;;;;;5026886;28;19922;-79
2023/05/16 12:16:31;;;;;;;3.13;0.90;;;;;;;;;;5008847;28;20242;-78
2023/05/16 12:18:58;;;;;;;4.77;1.03;;;;;;;;;;5012319;28;20010;-79
2023/05/16 12:21:25;;;;;;;6.67;1.00;;;;;;;;;;5009753;28;20107;-77
2023/05/16 12:23:55;;;;;;;4.03;0.70;;;;;;;;;;5009526;28;20049;-76
2023/05/16 12:26:30;;;;;;;5.20;0.70;;;;;;;;;;5011625;28;20018;-79
2023/05/16 12:29:04;;;;;;;2.50;0.60;;;;;;;;;;5025781;28;20019;-79
2023/05/16 12:31:31;;;;;;;3.03;0.90;;;;;;;;;;5007489;28;20031;-78
2023/05/16 12:33:57;;;;;;;4.70;0.63;;;;;;;;;;5066241;22;20034;-79
2023/05/16 12:36:25;;;;;;;8.38;1.40;;;;;;;;;;5003776;28;20018;-79
2023/05/16 12:38:51;;;;;;;6.07;1.45;;;;;;;;;;5001148;28;20050;-80
2023/05/16 12:41:21;;;;;;;9.30;1.50;;;;;;;;;;5010629;28;20030;-79
2023/05/16 12:43:50;;;;;;;8.55;1.50;;;;;;;;;;5014403;28;20019;-78
2023/05/16 12:46:16;;;;;;;7.50;1.40;;;;;;;;;;5010915;28;20038;-79
2023/05/16 12:48:43;;;;;;;5.10;1.00;;;;;;;;;;5010190;28;20022;-78
2023/05/16 12:51:15;;;;;;;8.60;1.40;;;;;;;;;;5010216;28;20023;-79
2023/05/16 12:53:49;;;;;;;6.78;1.38;;;;;;;;;;5011805;28;20106;-79
2023/05/16 12:56:19;;;;;;;8.15;0.68;;;;;;;;;;5012259;28;20066;-79
2023/05/16 12:58:51;;;;;;;6.25;1.33;;;;;;;;;;5014181;28;20025;-80
2023/05/16 13:01:17;;;;;;;5.47;1.15;;;;;;;;;;5013189;28;20041;-80
2023/05/16 13:03:43;;;;;;;7.40;1.23;;;;;;;;;;5000043;28;20037;-79
2023/05/16 13:06:09;;;;;;;4.93;0.93;;;;;;;;;;5012329;28;20026;-79
2023/05/16 13:08:40;;;;;;;6.32;1.00;;;;;;;;;;5015030;28;20030;-79
2023/05/16 13:11:06;;;;;;;5.93;1.25;;;;;;;;;;5017142;28;20027;-79
2023/05/16 13:13:36;;;;;;;6.80;1.10;;;;;;;;;;5012317;28;20026;-79
2023/05/16 13:16:03;;;;;;;5.83;1.10;;;;;;;;;;5002118;28;20030;-78
2023/05/16 13:18:29;;;;;;;6.45;1.30;;;;;;;;;;5011874;28;20126;-78
2023/05/16 13:20:55;;;;;;;7.33;1.17;;;;;;;;;;5003745;28;20095;-82
2023/05/16 13:23:21;;;;;;;7.83;1.20;;;;;;;;;;5013369;28;20019;-78
2023/05/16 13:25:47;;;;;;;3.03;0.90;;;;;;;;;;5013220;28;20045;-80
2023/05/16 13:28:13;;;;;;;3.40;0.50;;;;;;;;;;5012558;28;20046;-79
2023/05/16 13:30:41;;;;;;;6.73;1.00;;;;;;;;;;4998538;28;20016;-79
2023/05/16 13:33:08;;;;;;;4.20;1.20;;;;;;;;;;5000349;28;21420;-79
2023/05/16 13:35:34;;;;;;;3.58;0.95;;;;;;;;;;5013369;28;20040;-78
2023/05/16 13:38:00;;;;;;;5.63;1.20;;;;;;;;;;4998930;28;20025;-79
2023/05/16 13:40:28;;;;;;;5.60;1.10;;;;;;;;;;5012432;28;20011;-78
2023/05/16 13:42:55;;;;;;;4.22;1.02;;;;;;;;;;5012146;28;20027;-80
2023/05/16 13:45:23;;;;;;;4.22;0.73;;;;;;;;;;5000130;28;20104;-79
2023/05/16 13:47:49;;;;;;;2.55;0.70;;;;;;;;;;4997485;28;20033;-79
2023/05/16 13:50:21;;;;;;;4.82;1.05;;;;;;;;;;5011002;28;20042;-78
2023/05/16 13:52:47;;;;;;;5.45;1.20;;;;;;;;;;5008741;28;20019;-78
2023/05/16 13:55:13;;;;;;;1.95;0.80;;;;;;;;;;5003905;28;20010;-78
2023/05/16 13:57:42;;;;;;;3.42;0.80;;;;;;;;;;5010650;28;20038;-79
2023/05/16 14:00:11;;;;;;;3.17;1.20;;;;;;;;;;5003342;28;20041;-78
2023/05/16 14:02:39;;;;;;;4.43;1.25;;;;;;;;;;5014533;28;20014;-80
2023/05/16 14:05:06;;;;;;;5.13;1.02;;;;;;;;;;5013903;28;20019;-80
2023/05/16 14:07:35;;;;;;;1.92;0.60;;;;;;;;;;4996474;28;20030;-78
2023/05/16 14:10:02;;;;;;;2.88;0.80;;;;;;;;;;4995099;28;20007;-79
2023/05/16 14:12:28;;;;;;;3.45;0.70;;;;;;;;;;4995426;28;20014;-79
2023/05/16 14:14:54;;;;;;;4.72;0.95;;;;;;;;;;5010255;28;20023;-78
2023/05/16 14:17:20;;;;;;;2.30;0.70;;;;;;;;;;5010583;28;20019;-79
2023/05/16 14:19:49;;;;;;;3.80;1.10;;;;;;;;;;5008557;28;20043;-79
2023/05/16 14:22:15;;;;;;;4.75;1.30;;;;;;;;;;5006869;28;20012;-78
2023/05/16 14:24:48;;;;;;;5.72;1.10;;;;;;;;;;5010961;28;20019;-79
2023/05/16 14:27:15;;;;;;;9.02;1.00;;;;;;;;;;5000915;28;20038;-80
2023/05/16 14:29:41;;;;;;;2.80;0.77;;;;;;;;;;4999015;28;20030;-78
2023/05/16 14:32:09;;;;;;;2.78;0.80;;;;;;;;;;5009469;28;20063;-78
2023/05/16 14:34:35;;;;;;;4.60;0.93;;;;;;;;;;5010655;28;20019;-79